createdAt,value
2019-01-25T00:01:22.191Z,-2.10
2019-01-25T00:03:24.059Z,-2.10
2019-01-25T00:05:25.898Z,-2.20
2019-01-25T00:07:27.651Z,-2.30
2019-01-25T00:09:29.416Z,-2.20
2019-01-25T00:11:31.423Z,-2.10
2019-01-25T00:13:33.412Z,-2.10
2019-01-25T00:15:35.280Z,-2.10
2019-01-25T00:17:37.289Z,-2.10
2019-01-25T00:19:39.079Z,-2.20
2019-01-25T00:21:40.982Z,-2.20
2019-01-25T00:23:42.769Z,-2.20
2019-01-25T00:25:44.739Z,-2.20
2019-01-25T00:27:46.716Z,-2.30
2019-01-25T00:29:48.592Z,-2.20
2019-01-25T00:31:50.362Z,-2.10
2019-01-25T00:33:52.107Z,-2.10
2019-01-25T00:35:54.088Z,-2.10
2019-01-25T00:37:55.949Z,-2.10
2019-01-25T00:39:57.861Z,-2.20
2019-01-25T00:41:59.800Z,-2.10
2019-01-25T00:44:01.773Z,-2.10
2019-01-25T00:46:03.761Z,-2.00
2019-01-25T00:48:05.636Z,-2.00
2019-01-25T00:50:11.623Z,-2.00
2019-01-25T00:52:13.591Z,-2.00
2019-01-25T00:54:15.435Z,-2.00
2019-01-25T00:56:17.302Z,-2.10
2019-01-25T00:58:19.224Z,-2.20
2019-01-25T01:00:22.807Z,-2.30
2019-01-25T01:02:25.056Z,-2.30
2019-01-25T01:04:26.832Z,-2.40
2019-01-25T01:06:28.712Z,-2.40
2019-01-25T01:08:30.707Z,-2.50
2019-01-25T01:10:32.638Z,-2.40
2019-01-25T01:12:34.643Z,-2.40
2019-01-25T01:14:36.385Z,-2.30
2019-01-25T01:16:38.355Z,-2.40
2019-01-25T01:18:40.323Z,-2.40
2019-01-25T01:20:42.287Z,-2.30
2019-01-25T01:22:44.180Z,-2.40
2019-01-25T01:24:46.073Z,-2.40
2019-01-25T01:26:48.002Z,-2.40
2019-01-25T01:28:49.751Z,-2.40
2019-01-25T01:30:51.677Z,-2.50
2019-01-25T01:32:53.735Z,-2.50
2019-01-25T01:34:55.578Z,-2.60
2019-01-25T01:36:57.537Z,-2.60
2019-01-25T01:38:59.702Z,-2.40
2019-01-25T01:41:01.624Z,-2.30
2019-01-25T01:43:03.908Z,-2.50
2019-01-25T01:45:07.054Z,-2.40
2019-01-25T01:47:09.009Z,-2.50
2019-01-25T01:49:10.864Z,-2.40
2019-01-25T01:51:12.664Z,-2.40
2019-01-25T01:53:14.520Z,-2.50
2019-01-25T01:55:16.367Z,-2.50
2019-01-25T01:57:18.143Z,-2.40
2019-01-25T01:59:19.915Z,-2.30
2019-01-25T02:01:21.883Z,-2.40
2019-01-25T02:03:23.769Z,-2.40
2019-01-25T02:05:25.647Z,-2.40
2019-01-25T02:07:27.413Z,-2.40
2019-01-25T02:09:29.401Z,-2.40
2019-01-25T02:11:31.442Z,-2.30
2019-01-25T02:13:33.195Z,-2.40
2019-01-25T02:15:35.155Z,-2.40
2019-01-25T02:17:36.991Z,-2.40
2019-01-25T02:19:38.844Z,-2.40
2019-01-25T02:21:40.621Z,-2.50
2019-01-25T02:23:42.567Z,-2.40
2019-01-25T02:25:44.512Z,-2.40
2019-01-25T02:27:46.499Z,-2.40
2019-01-25T02:29:48.298Z,-2.30
2019-01-25T02:31:50.181Z,-2.40
2019-01-25T02:33:52.176Z,-2.40
2019-01-25T02:35:54.792Z,-2.40
2019-01-25T02:37:56.752Z,-2.40
2019-01-25T02:39:58.646Z,-2.30
2019-01-25T02:42:00.391Z,-2.40
2019-01-25T02:44:02.233Z,-2.30
2019-01-25T02:46:04.206Z,-2.30
2019-01-25T02:48:06.292Z,-2.40
2019-01-25T02:50:10.914Z,-2.40
2019-01-25T02:52:12.811Z,-2.40
2019-01-25T02:54:14.539Z,-2.50
2019-01-25T02:56:16.430Z,-2.30
2019-01-25T02:58:18.641Z,-2.30
2019-01-25T03:00:22.818Z,-2.30
2019-01-25T03:02:24.784Z,-2.30
2019-01-25T03:04:26.687Z,-2.30
2019-01-25T03:06:28.652Z,-2.30
2019-01-25T03:08:30.510Z,-2.20
2019-01-25T03:10:32.584Z,-2.10
2019-01-25T03:12:34.530Z,-2.10
2019-01-25T03:14:36.661Z,-2.00
2019-01-25T03:16:38.868Z,-2.10
2019-01-25T03:18:40.738Z,-2.20
2019-01-25T03:20:42.637Z,-2.40
2019-01-25T03:22:44.619Z,-2.40
2019-01-25T03:24:46.502Z,-2.30
2019-01-25T03:26:48.588Z,-2.10
2019-01-25T03:28:50.478Z,-2.10
2019-01-25T03:30:52.226Z,-2.10
2019-01-25T03:32:54.250Z,-2.20
2019-01-25T03:34:56.047Z,-2.20
2019-01-25T03:36:57.986Z,-2.20
2019-01-25T03:38:59.875Z,-2.20
2019-01-25T03:41:01.784Z,-2.30
2019-01-25T03:43:03.748Z,-2.30
2019-01-25T03:45:06.095Z,-2.20
2019-01-25T03:47:08.177Z,-2.30
2019-01-25T03:49:10.153Z,-2.20
2019-01-25T03:51:12.021Z,-2.20
2019-01-25T03:53:13.924Z,-2.30
2019-01-25T03:55:15.997Z,-2.40
2019-01-25T03:57:17.864Z,-2.50
2019-01-25T03:59:19.844Z,-2.50
2019-01-25T04:01:21.616Z,-2.40
2019-01-25T04:03:23.395Z,-2.50
2019-01-25T04:05:25.576Z,-2.40
2019-01-25T04:07:27.437Z,-2.30
2019-01-25T04:09:29.180Z,-2.30
2019-01-25T04:11:31.045Z,-2.20
2019-01-25T04:13:32.794Z,-2.20
2019-01-25T04:15:35.023Z,-2.20
2019-01-25T04:17:36.987Z,-2.20
2019-01-25T04:19:38.786Z,-2.30
2019-01-25T04:21:40.737Z,-2.40
2019-01-25T04:23:42.729Z,-2.40
2019-01-25T04:25:44.469Z,-2.30
2019-01-25T04:27:46.637Z,-2.20
2019-01-25T04:29:48.442Z,-2.30
2019-01-25T04:31:50.335Z,-2.30
2019-01-25T04:33:52.211Z,-2.20
2019-01-25T04:35:54.087Z,-2.30
2019-01-25T04:37:55.979Z,-2.40
2019-01-25T04:39:57.756Z,-2.30
2019-01-25T04:41:59.838Z,-2.20
2019-01-25T04:44:01.708Z,-2.10
2019-01-25T04:46:03.675Z,-2.20
2019-01-25T04:48:11.360Z,-2.20
2019-01-25T04:50:15.644Z,-2.30
2019-01-25T04:52:17.524Z,-2.20
2019-01-25T04:54:19.302Z,-2.30
2019-01-25T04:56:21.091Z,-2.40
2019-01-25T04:58:23.223Z,-2.30
2019-01-25T05:00:25.085Z,-2.30
2019-01-25T05:02:26.916Z,-2.40
2019-01-25T05:04:35.068Z,-2.40
2019-01-25T05:06:37.182Z,-2.40
2019-01-25T05:08:39.117Z,-2.40
2019-01-25T05:10:41.534Z,-2.40
2019-01-25T05:12:53.047Z,-2.50
2019-01-25T05:14:55.109Z,-2.50
2019-01-25T05:16:57.453Z,-2.50
2019-01-25T05:18:59.215Z,-2.50
2019-01-25T05:21:01.170Z,-2.50
2019-01-25T05:23:04.314Z,-2.40
2019-01-25T05:25:06.528Z,-2.40
2019-01-25T05:27:08.419Z,-2.40
2019-01-25T05:29:10.396Z,-2.40
2019-01-25T05:31:13.021Z,-2.40
2019-01-25T05:33:14.772Z,-2.30
2019-01-25T05:35:16.743Z,-2.30
2019-01-25T05:37:18.657Z,-2.20
2019-01-25T05:39:21.099Z,-2.20
2019-01-25T05:41:28.299Z,-2.30
2019-01-25T05:43:30.704Z,-2.20
2019-01-25T05:45:32.664Z,-2.30
2019-01-25T05:47:34.551Z,-2.40
2019-01-25T05:49:36.618Z,-2.40
2019-01-25T05:51:38.477Z,-2.40
2019-01-25T05:53:50.132Z,-2.40
2019-01-25T05:55:52.223Z,-2.40
2019-01-25T05:57:59.351Z,-2.30
2019-01-25T06:00:04.911Z,-2.40
2019-01-25T06:02:06.778Z,-2.40
2019-01-25T06:04:08.608Z,-2.30
2019-01-25T06:06:11.370Z,-2.30
2019-01-25T06:08:34.456Z,-2.30
2019-01-25T06:10:36.313Z,-2.40
2019-01-25T06:12:38.271Z,-2.40
2019-01-25T06:14:40.010Z,-2.40
2019-01-25T06:16:41.771Z,-2.40
2019-01-25T06:18:43.734Z,-2.50
2019-01-25T06:20:50.314Z,-2.50
2019-01-25T06:22:54.890Z,-2.50
2019-01-25T06:24:56.761Z,-2.60
2019-01-25T06:26:58.691Z,-2.60
2019-01-25T06:29:00.424Z,-2.50
2019-01-25T06:31:02.387Z,-2.40
2019-01-25T06:33:04.151Z,-2.50
2019-01-25T06:35:06.089Z,-2.50
2019-01-25T06:37:08.068Z,-2.50
2019-01-25T06:39:09.934Z,-2.50
2019-01-25T06:41:11.917Z,-2.50
2019-01-25T06:43:13.941Z,-2.40
2019-01-25T06:45:16.001Z,-2.30
2019-01-25T06:47:17.887Z,-2.30
2019-01-25T06:49:19.895Z,-2.30
2019-01-25T06:51:21.721Z,-2.30
2019-01-25T06:53:23.559Z,-2.30
2019-01-25T06:55:25.666Z,-2.30
2019-01-25T06:57:46.977Z,-2.40
2019-01-25T06:59:48.773Z,-2.30
2019-01-25T07:01:57.095Z,-2.30
2019-01-25T07:03:59.191Z,-2.30
2019-01-25T07:06:01.181Z,-2.20
2019-01-25T07:08:03.248Z,-2.30
2019-01-25T07:10:09.564Z,-2.40
2019-01-25T07:12:11.316Z,-2.30
2019-01-25T07:14:13.285Z,-2.30
2019-01-25T07:16:15.067Z,-2.20
2019-01-25T07:18:16.935Z,-2.10
2019-01-25T07:20:18.793Z,-2.10
2019-01-25T07:22:20.831Z,-2.20
2019-01-25T07:24:22.783Z,-2.20
2019-01-25T07:26:24.556Z,-2.30
2019-01-25T07:28:26.288Z,-2.40
2019-01-25T07:30:28.224Z,-2.50
2019-01-25T07:32:30.000Z,-2.40
2019-01-25T07:34:31.876Z,-2.60
2019-01-25T07:36:33.658Z,-2.50
2019-01-25T07:38:35.603Z,-2.50
2019-01-25T07:40:37.392Z,-2.50
2019-01-25T07:42:40.477Z,-2.50
2019-01-25T07:44:42.245Z,-2.40
2019-01-25T07:46:44.025Z,-2.40
2019-01-25T07:48:46.003Z,-2.20
2019-01-25T07:50:48.086Z,-2.00
2019-01-25T07:52:49.936Z,-2.00
2019-01-25T07:54:52.056Z,-2.10
2019-01-25T07:56:53.880Z,-2.20
2019-01-25T07:58:55.672Z,-2.30
2019-01-25T08:00:57.865Z,-2.30
2019-01-25T08:02:59.780Z,-2.40
2019-01-25T08:05:02.153Z,-2.40
2019-01-25T08:07:04.526Z,-2.40
2019-01-25T08:09:08.154Z,-2.40
2019-01-25T08:11:09.914Z,-2.40
2019-01-25T08:13:11.950Z,-2.40
2019-01-25T08:15:16.145Z,-2.40
2019-01-25T08:17:18.024Z,-2.40
2019-01-25T08:19:19.813Z,-2.40
2019-01-25T08:21:21.590Z,-2.40
2019-01-25T08:23:23.454Z,-2.50
2019-01-25T08:25:25.236Z,-2.50
2019-01-25T08:27:27.015Z,-2.60
2019-01-25T08:29:29.000Z,-2.70
2019-01-25T08:31:31.220Z,-2.60
2019-01-25T08:33:33.014Z,-2.60
2019-01-25T08:35:35.168Z,-2.60
2019-01-25T08:37:37.175Z,-2.60
2019-01-25T08:39:39.020Z,-2.60
2019-01-25T08:41:40.979Z,-2.60
2019-01-25T08:43:43.268Z,-2.50
2019-01-25T08:45:45.180Z,-2.50
2019-01-25T08:47:47.178Z,-2.40
2019-01-25T08:49:49.261Z,-2.50
2019-01-25T08:51:51.144Z,-2.50
2019-01-25T08:53:52.912Z,-2.60
2019-01-25T08:55:54.908Z,-2.60
2019-01-25T08:57:56.911Z,-2.60
2019-01-25T08:59:58.867Z,-2.60
2019-01-25T09:02:00.943Z,-2.60
2019-01-25T09:04:03.294Z,-2.40
2019-01-25T09:06:05.229Z,-2.40
2019-01-25T09:08:07.266Z,-2.40
2019-01-25T09:10:13.940Z,-2.50
2019-01-25T09:12:23.097Z,-2.30
2019-01-25T09:14:20.131Z,-2.30
2019-01-25T09:16:22.155Z,-2.30
2019-01-25T09:18:24.143Z,-2.30
2019-01-25T09:20:26.135Z,-2.40
2019-01-25T09:22:28.216Z,-2.40
2019-01-25T09:24:30.195Z,-2.40
2019-01-25T09:26:32.196Z,-2.40
2019-01-25T09:28:34.202Z,-2.40
2019-01-25T09:30:36.346Z,-2.30
2019-01-25T09:32:38.355Z,-2.30
2019-01-25T09:34:40.568Z,-2.10
2019-01-25T09:36:42.405Z,-2.10
2019-01-25T09:38:44.414Z,-2.10
2019-01-25T09:40:46.907Z,-2.00
2019-01-25T09:42:49.365Z,-2.00
2019-01-25T09:44:51.487Z,-2.00
2019-01-25T09:46:53.614Z,-2.00
2019-01-25T09:48:55.692Z,-1.90
2019-01-25T09:50:57.482Z,-1.90
2019-01-25T09:52:59.736Z,-1.90
2019-01-25T09:55:01.605Z,-1.80
2019-01-25T09:57:04.310Z,-1.70
2019-01-25T09:59:06.229Z,-1.80
2019-01-25T10:01:09.137Z,-1.70
2019-01-25T10:03:10.960Z,-1.60
2019-01-25T10:05:12.950Z,-1.60
2019-01-25T10:07:14.797Z,-1.50
2019-01-25T10:09:16.696Z,-1.40
2019-01-25T10:11:19.191Z,-1.40
2019-01-25T10:13:21.173Z,-1.40
2019-01-25T10:15:24.306Z,-1.40
2019-01-25T10:17:26.331Z,-1.30
2019-01-25T10:19:28.244Z,-1.30
2019-01-25T10:21:30.264Z,-1.20
2019-01-25T10:23:32.078Z,-1.10
2019-01-25T10:25:34.004Z,-1.20
2019-01-25T10:27:35.989Z,-1.00
2019-01-25T10:29:37.971Z,-1.10
2019-01-25T10:31:39.907Z,-1.10
2019-01-25T10:33:41.793Z,-1.10
2019-01-25T10:35:44.194Z,-1.00
2019-01-25T10:37:46.151Z,-1.10
2019-01-25T10:39:47.933Z,-1.20
2019-01-25T10:41:49.720Z,-1.20
2019-01-25T10:43:51.510Z,-1.30
2019-01-25T10:45:54.491Z,-1.20
2019-01-25T10:47:56.522Z,-1.00
2019-01-25T10:49:59.297Z,-0.80
2019-01-25T10:52:01.087Z,-1.00
2019-01-25T10:54:03.345Z,-1.10
2019-01-25T10:56:05.363Z,-1.20
2019-01-25T10:58:07.772Z,-1.30
2019-01-25T11:00:12.172Z,-1.40
2019-01-25T11:02:13.981Z,-1.60
2019-01-25T11:04:15.963Z,-1.50
2019-01-25T11:06:17.707Z,-1.50
2019-01-25T11:08:19.452Z,-1.50
2019-01-25T11:10:21.511Z,-1.60
2019-01-25T11:12:24.342Z,-1.60
2019-01-25T11:14:29.778Z,-1.60
2019-01-25T11:16:31.998Z,-1.60
2019-01-25T11:18:34.228Z,-1.60
2019-01-25T11:20:36.359Z,-1.50
2019-01-25T11:22:38.220Z,-1.40
2019-01-25T11:24:39.973Z,-1.30
2019-01-25T11:26:41.788Z,-1.20
2019-01-25T11:28:43.535Z,-1.00
2019-01-25T11:30:45.505Z,-1.10
2019-01-25T11:32:47.487Z,-1.30
2019-01-25T11:34:49.437Z,-1.40
2019-01-25T11:36:51.576Z,-1.50
2019-01-25T11:38:55.839Z,-1.60
2019-01-25T11:40:57.929Z,-1.70
2019-01-25T11:42:59.864Z,-1.70
2019-01-25T11:45:02.653Z,-1.60
2019-01-25T11:47:05.275Z,-1.70
2019-01-25T11:49:07.196Z,-1.80
2019-01-25T11:51:08.967Z,-1.70
2019-01-25T11:53:11.016Z,-1.60
2019-01-25T11:55:13.411Z,-1.60
2019-01-25T11:57:15.575Z,-1.70
2019-01-25T11:59:17.431Z,-1.70
2019-01-25T12:01:19.258Z,-1.70
2019-01-25T12:03:21.850Z,-1.70
2019-01-25T12:05:23.919Z,-1.60
2019-01-25T12:07:25.620Z,-1.60
2019-01-25T12:09:27.350Z,-1.60
2019-01-25T12:11:29.085Z,-1.70
2019-01-25T12:13:31.067Z,-1.70
2019-01-25T12:15:35.491Z,-1.60
2019-01-25T12:17:37.306Z,-1.60
2019-01-25T12:19:39.051Z,-1.60
2019-01-25T12:21:40.765Z,-1.60
2019-01-25T12:23:42.567Z,-1.60
2019-01-25T12:25:51.347Z,-1.70
2019-01-25T12:27:53.468Z,-1.70
2019-01-25T12:29:55.342Z,-1.90
2019-01-25T12:31:57.122Z,-1.80
2019-01-25T12:33:58.972Z,-1.70
2019-01-25T12:36:04.321Z,-1.80
2019-01-25T12:38:06.218Z,-1.90
2019-01-25T12:40:09.879Z,-1.90
2019-01-25T12:42:11.703Z,-2.00
2019-01-25T12:44:13.795Z,-1.90
2019-01-25T12:46:15.517Z,-2.00
2019-01-25T12:48:17.784Z,-1.90
2019-01-25T12:50:28.654Z,-2.00
2019-01-25T12:52:30.378Z,-2.00
2019-01-25T12:54:32.650Z,-2.00
2019-01-25T12:56:38.403Z,-2.00
2019-01-25T12:58:40.266Z,-2.00
2019-01-25T13:00:42.945Z,-2.00
2019-01-25T13:02:45.173Z,-2.00
2019-01-25T13:04:47.136Z,-2.00
2019-01-25T13:06:49.687Z,-2.00
2019-01-25T13:08:51.486Z,-2.00
2019-01-25T13:10:53.224Z,-1.90
2019-01-25T13:12:55.702Z,-1.90
2019-01-25T13:14:59.316Z,-1.90
2019-01-25T13:17:01.018Z,-2.00
2019-01-25T13:19:03.494Z,-1.90
2019-01-25T13:21:05.422Z,-2.00
2019-01-25T13:23:07.187Z,-2.00
2019-01-25T13:25:09.240Z,-2.00
2019-01-25T13:27:11.070Z,-2.00
2019-01-25T13:29:12.887Z,-2.00
2019-01-25T13:31:15.126Z,-2.00
2019-01-25T13:33:16.908Z,-2.10
2019-01-25T13:35:19.064Z,-2.00
2019-01-25T13:37:20.987Z,-2.10
2019-01-25T13:39:22.805Z,-2.10
2019-01-25T13:41:27.419Z,-2.10
2019-01-25T13:43:28.156Z,-2.10
2019-01-25T13:45:29.970Z,-2.10
2019-01-25T13:47:31.679Z,-2.10
2019-01-25T13:49:33.435Z,-2.20
2019-01-25T13:51:35.180Z,-2.20
2019-01-25T13:53:37.172Z,-2.30
2019-01-25T13:55:42.739Z,-2.30
2019-01-25T13:57:48.093Z,-2.30
2019-01-25T13:59:49.790Z,-2.20
2019-01-25T14:01:56.113Z,-2.20
2019-01-25T14:03:55.136Z,-2.20
2019-01-25T14:05:56.984Z,-2.20
2019-01-25T14:07:58.795Z,-2.10
2019-01-25T14:10:00.687Z,-2.10
2019-01-25T14:12:02.809Z,-2.10
2019-01-25T14:14:04.623Z,-2.20
2019-01-25T14:16:09.433Z,-2.20
2019-01-25T14:18:12.229Z,-2.20
2019-01-25T14:20:23.329Z,-2.10
2019-01-25T14:22:25.630Z,-2.20
2019-01-25T14:24:30.863Z,-2.10
2019-01-25T14:26:41.844Z,-2.10
2019-01-25T14:28:44.328Z,-2.10
2019-01-25T14:30:46.615Z,-2.20
2019-01-25T14:32:51.562Z,-2.10
2019-01-25T14:34:56.163Z,-2.10
2019-01-25T14:37:02.967Z,-2.10
2019-01-25T14:39:06.721Z,-2.10
2019-01-25T14:41:08.659Z,-2.10
2019-01-25T14:43:11.713Z,-2.10
2019-01-25T14:45:13.831Z,-2.10
2019-01-25T14:47:15.543Z,-2.20
2019-01-25T14:49:17.766Z,-2.30
2019-01-25T14:51:19.824Z,-2.30
2019-01-25T14:53:21.542Z,-2.20
2019-01-25T14:55:23.406Z,-2.30
2019-01-25T14:57:25.131Z,-2.30
2019-01-25T14:59:26.854Z,-2.20
2019-01-25T15:01:28.567Z,-2.30
2019-01-25T15:03:30.311Z,-2.30
2019-01-25T15:05:32.025Z,-2.30
2019-01-25T15:07:35.972Z,-2.30
2019-01-25T15:09:38.082Z,-2.40
2019-01-25T15:11:40.018Z,-2.40
2019-01-25T15:13:41.971Z,-2.30
2019-01-25T15:15:43.875Z,-2.30
2019-01-25T15:17:45.807Z,-2.20
2019-01-25T15:19:47.700Z,-2.30
2019-01-25T15:21:50.878Z,-2.30
2019-01-25T15:23:52.771Z,-2.40
2019-01-25T15:25:54.462Z,-2.30
2019-01-25T15:27:56.171Z,-2.30
2019-01-25T15:29:57.891Z,-2.30
2019-01-25T15:31:59.609Z,-2.30
2019-01-25T15:34:01.628Z,-2.20
2019-01-25T15:36:03.644Z,-2.30
2019-01-25T15:38:05.459Z,-2.30
2019-01-25T15:40:08.695Z,-2.30
2019-01-25T15:42:10.648Z,-2.40
2019-01-25T15:44:12.379Z,-2.40
2019-01-25T15:46:15.327Z,-2.40
2019-01-25T15:48:17.392Z,-2.50
2019-01-25T15:50:21.539Z,-2.50
2019-01-25T15:52:23.375Z,-2.50
2019-01-25T15:54:25.075Z,-2.50
2019-01-25T15:56:27.302Z,-2.40
2019-01-25T15:58:29.018Z,-2.50
2019-01-25T16:00:30.769Z,-2.60
2019-01-25T16:02:32.496Z,-2.60
2019-01-25T16:04:35.075Z,-2.60
2019-01-25T16:06:37.491Z,-2.50
2019-01-25T16:08:39.243Z,-2.50
2019-01-25T16:10:41.063Z,-2.50
2019-01-25T16:12:43.015Z,-2.50
2019-01-25T16:14:44.882Z,-2.60
2019-01-25T16:16:46.855Z,-2.50
2019-01-25T16:18:48.687Z,-2.50
2019-01-25T16:20:50.507Z,-2.60
2019-01-25T16:22:52.748Z,-2.60
2019-01-25T16:24:54.456Z,-2.60
2019-01-25T16:26:56.308Z,-2.50
2019-01-25T16:28:58.373Z,-2.50
2019-01-25T16:31:00.258Z,-2.50
2019-01-25T16:33:02.372Z,-2.60
2019-01-25T16:35:04.661Z,-2.60
2019-01-25T16:37:06.410Z,-2.60
2019-01-25T16:39:20.178Z,-2.60
2019-01-25T16:42:02.373Z,-2.60
2019-01-25T16:44:01.349Z,-2.60
2019-01-25T16:46:03.834Z,-2.60
2019-01-25T16:48:05.947Z,-2.60
2019-01-25T16:50:30.213Z,-2.60
2019-01-25T16:52:32.173Z,-2.60
2019-01-25T16:54:33.927Z,-2.70
2019-01-25T16:56:36.031Z,-2.70
2019-01-25T16:58:37.898Z,-2.70
2019-01-25T17:00:42.089Z,-2.70
2019-01-25T17:03:03.878Z,-2.70
2019-01-25T17:05:09.686Z,-2.70
2019-01-25T17:07:14.296Z,-2.70
2019-01-25T17:09:26.171Z,-2.70
2019-01-25T17:11:42.317Z,-2.70
2019-01-25T17:13:44.274Z,-2.70
2019-01-25T17:15:46.042Z,-2.60
2019-01-25T17:17:47.763Z,-2.70
2019-01-25T17:19:49.812Z,-2.70
2019-01-25T17:21:54.943Z,-2.70
2019-01-25T17:23:57.110Z,-2.70
2019-01-25T17:25:58.859Z,-2.70
2019-01-25T17:28:00.856Z,-2.70
2019-01-25T17:30:05.308Z,-2.70
2019-01-25T17:32:07.211Z,-2.60
2019-01-25T17:34:12.363Z,-2.60
2019-01-25T17:37:08.739Z,-2.70
2019-01-25T17:39:15.782Z,-2.70
2019-01-25T17:41:17.651Z,-2.70
2019-01-25T17:43:19.371Z,-2.70
2019-01-25T17:45:21.121Z,-2.70
2019-01-25T17:47:23.216Z,-2.70
2019-01-25T17:49:24.922Z,-2.70
2019-01-25T17:51:27.310Z,-2.70
2019-01-25T17:53:29.269Z,-2.70
2019-01-25T17:55:31.562Z,-2.80
2019-01-25T17:57:33.480Z,-2.80
2019-01-25T18:00:38.055Z,-2.80
2019-01-25T18:03:16.619Z,-2.80
2019-01-25T18:05:18.527Z,-2.80
2019-01-25T18:07:20.603Z,-2.80
2019-01-25T18:09:24.577Z,-2.80
2019-01-25T18:11:26.407Z,-2.80
2019-01-25T18:13:28.715Z,-2.80
2019-01-25T18:17:58.722Z,-2.80
2019-01-25T18:20:00.649Z,-2.80
2019-01-25T18:22:02.495Z,-2.80
2019-01-25T18:24:04.495Z,-2.90
2019-01-25T18:26:11.709Z,-2.90
2019-01-25T18:28:20.247Z,-2.80
2019-01-25T18:30:29.363Z,-2.80
2019-01-25T18:32:31.223Z,-2.80
2019-01-25T18:34:33.050Z,-2.80
2019-01-25T18:36:34.891Z,-2.80
2019-01-25T18:38:37.891Z,-2.80
2019-01-25T18:40:39.786Z,-2.80
2019-01-25T18:42:41.527Z,-2.90
2019-01-25T18:44:43.278Z,-2.80
2019-01-25T18:47:12.082Z,-2.80
2019-01-25T18:49:14.224Z,-2.80
2019-01-25T18:52:10.397Z,-2.90
2019-01-25T18:54:12.440Z,-2.90
2019-01-25T18:56:15.940Z,-2.90
2019-01-25T18:58:17.919Z,-3.00
2019-01-25T19:00:20.270Z,-2.90
2019-01-25T19:02:22.085Z,-2.90
2019-01-25T19:04:23.870Z,-2.90
2019-01-25T19:06:25.862Z,-2.90
2019-01-25T19:08:27.583Z,-2.90
2019-01-25T19:10:29.527Z,-2.90
2019-01-25T19:12:31.293Z,-2.90
2019-01-25T19:14:45.558Z,-3.00
2019-01-25T19:16:47.447Z,-3.00
2019-01-25T19:18:49.492Z,-3.10
2019-01-25T19:20:52.171Z,-3.10
2019-01-25T19:22:54.219Z,-3.10
2019-01-25T19:24:56.372Z,-3.00
2019-01-25T19:26:58.236Z,-2.90
2019-01-25T19:29:00.118Z,-3.00
2019-01-25T19:31:02.110Z,-3.00
2019-01-25T19:33:04.745Z,-3.00
2019-01-25T19:35:16.527Z,-3.00
2019-01-25T19:37:18.382Z,-3.00
2019-01-25T19:39:20.146Z,-3.00
2019-01-25T19:41:21.971Z,-3.00
2019-01-25T19:43:23.783Z,-3.00
2019-01-25T19:45:26.030Z,-2.90
2019-01-25T19:47:28.207Z,-2.90
2019-01-25T19:49:30.087Z,-2.90
2019-01-25T19:51:31.834Z,-2.90
2019-01-25T19:53:34.081Z,-3.00
2019-01-25T19:55:36.001Z,-2.90
2019-01-25T19:57:39.042Z,-2.90
2019-01-25T19:59:40.963Z,-2.90
2019-01-25T20:01:42.770Z,-3.00
2019-01-25T20:03:55.699Z,-3.00
2019-01-25T20:06:00.374Z,-2.80
2019-01-25T20:08:02.664Z,-2.90
2019-01-25T20:10:04.975Z,-2.90
2019-01-25T20:12:06.843Z,-2.90
2019-01-25T20:14:08.833Z,-3.00
2019-01-25T20:16:11.107Z,-3.00
2019-01-25T20:18:13.266Z,-2.90
2019-01-25T20:20:20.164Z,-3.00
2019-01-25T20:22:22.080Z,-2.90
2019-01-25T20:24:24.280Z,-3.00
2019-01-25T20:26:26.307Z,-3.00
2019-01-25T20:28:28.334Z,-2.90
2019-01-25T20:30:33.815Z,-2.90
2019-01-25T20:32:38.251Z,-2.80
2019-01-25T20:34:40.237Z,-2.80
2019-01-25T20:36:42.152Z,-2.80
2019-01-25T20:38:43.948Z,-2.90
2019-01-25T20:40:45.716Z,-2.90
2019-01-25T20:42:47.439Z,-2.80
2019-01-25T20:44:49.168Z,-2.90
2019-01-25T20:46:53.668Z,-2.90
2019-01-25T20:48:55.528Z,-2.90
2019-01-25T20:50:57.382Z,-3.00
2019-01-25T20:52:59.373Z,-2.90
2019-01-25T20:55:01.205Z,-2.90
2019-01-25T20:57:03.032Z,-2.90
2019-01-25T20:59:08.019Z,-2.90
2019-01-25T21:01:21.704Z,-2.80
2019-01-25T21:03:23.675Z,-2.80
2019-01-25T21:05:28.944Z,-2.90
2019-01-25T21:07:34.182Z,-2.90
2019-01-25T21:09:35.928Z,-2.80
2019-01-25T21:11:37.669Z,-2.80
2019-01-25T21:13:39.498Z,-2.80
2019-01-25T21:19:12.595Z,-2.80
2019-01-25T21:21:14.448Z,-2.80
2019-01-25T21:23:16.380Z,-2.80
2019-01-25T21:25:18.676Z,-2.90
2019-01-25T21:27:20.472Z,-2.80
2019-01-25T21:29:22.184Z,-2.90
2019-01-25T21:31:24.031Z,-2.90
2019-01-25T21:33:52.937Z,-2.90
2019-01-25T21:35:54.814Z,-3.00
2019-01-25T21:37:56.909Z,-2.90
2019-01-25T21:39:58.683Z,-3.00
2019-01-25T21:42:00.593Z,-3.00
2019-01-25T21:44:02.735Z,-3.00
2019-01-25T21:46:04.777Z,-3.00
2019-01-25T21:48:12.444Z,-2.90
2019-01-25T21:50:16.900Z,-2.80
2019-01-25T21:52:18.831Z,-2.90
2019-01-25T21:54:20.787Z,-2.90
2019-01-25T21:56:22.680Z,-2.80
2019-01-25T21:58:24.407Z,-2.80
2019-01-25T22:00:30.771Z,-2.80
2019-01-25T22:02:32.920Z,-2.80
2019-01-25T22:04:35.161Z,-2.80
2019-01-25T22:06:37.300Z,-2.80
2019-01-25T22:08:39.738Z,-2.80
2019-01-25T22:10:44.132Z,-2.80
2019-01-25T22:13:00.811Z,-2.80
2019-01-25T22:15:02.986Z,-2.80
2019-01-25T22:17:04.916Z,-2.70
2019-01-25T22:19:06.946Z,-2.70
2019-01-25T22:21:14.667Z,-2.70
2019-01-25T22:23:25.998Z,-2.70
2019-01-25T22:25:27.958Z,-2.70
2019-01-25T22:27:30.047Z,-2.60
2019-01-25T22:29:31.778Z,-2.50
2019-01-25T22:31:33.713Z,-2.50
2019-01-25T22:34:13.740Z,-2.50
2019-01-25T22:36:15.529Z,-2.50
2019-01-25T22:38:17.279Z,-2.50
2019-01-25T22:40:22.150Z,-2.50
2019-01-25T22:42:24.793Z,-2.40
2019-01-25T22:44:26.826Z,-2.50
2019-01-25T22:46:28.905Z,-2.50
2019-01-25T22:48:30.764Z,-2.50
2019-01-25T22:50:36.645Z,-2.40
2019-01-25T22:52:38.454Z,-2.40
2019-01-25T22:54:40.179Z,-2.30
2019-01-25T22:56:41.922Z,-2.20
2019-01-25T22:58:43.695Z,-2.20
2019-01-25T23:01:11.110Z,-2.20
2019-01-25T23:03:47.642Z,-2.10
2019-01-25T23:06:31.184Z,-2.10
2019-01-25T23:08:33.224Z,-2.10
2019-01-25T23:10:35.090Z,-2.10
2019-01-25T23:12:37.304Z,-2.10
2019-01-25T23:14:39.025Z,-2.00
2019-01-25T23:16:40.855Z,-2.00
2019-01-25T23:18:42.594Z,-2.10
2019-01-25T23:20:44.467Z,-2.00
2019-01-25T23:22:46.241Z,-2.00
2019-01-25T23:24:54.074Z,-2.00
2019-01-25T23:26:56.107Z,-2.00
2019-01-25T23:28:59.067Z,-1.90
2019-01-25T23:31:21.630Z,-1.90
2019-01-25T23:33:23.380Z,-1.90
2019-01-25T23:35:25.323Z,-1.90
2019-01-25T23:37:27.066Z,-1.80
2019-01-25T23:39:28.803Z,-1.80
2019-01-25T23:41:30.633Z,-1.80
2019-01-25T23:43:34.021Z,-1.80
2019-01-25T23:45:35.756Z,-1.70
2019-01-25T23:47:37.607Z,-1.70
2019-01-25T23:49:39.679Z,-1.60
2019-01-25T23:51:41.623Z,-1.50
2019-01-25T23:53:43.693Z,-1.50
2019-01-25T23:55:45.559Z,-1.50
2019-01-25T23:57:47.407Z,-1.50
2019-01-25T23:59:49.326Z,-1.50
